Time;durP1;ratioP1;P1;durP2;ratioP2;P2;SDS_P1;SDS_P2;PMS_P1;PMS_P2;Temp;Humidity;BMP_temperature;BMP_pressure;BME280_temperature;BME280_humidity;BME280_pressure;Samples;Min_cycle;Max_cycle;Signal;HPM_P1;HPM_P2
2023/06/04 00:02:23;;;;;;;4.70;1.55;;;12.50;81.30;;;;;;5052159;28;19904;-75
2023/06/04 00:04:48;;;;;;;3.95;1.10;;;12.40;81.10;;;;;;5052186;28;20037;-75
2023/06/04 00:07:14;;;;;;;;;;;12.30;81.20;;;;;;5052169;28;20108;-75
2023/06/04 00:09:39;;;;;;;1.95;0.60;;;12.30;81.40;;;;;;5052165;28;19908;-76
2023/06/04 00:12:08;;;;;;;;;;;12.30;81.90;;;;;;5052234;28;20021;-75
2023/06/04 00:14:33;;;;;;;6.70;1.25;;;12.30;82.40;;;;;;5051886;28;20300;-75
2023/06/04 00:16:59;;;;;;;;;;;12.30;83.70;;;;;;5052315;28;20037;-75
2023/06/04 00:19:25;;;;;;;3.10;1.00;;;12.20;84.50;;;;;;5051712;28;19962;-75
2023/06/04 00:21:50;;;;;;;;;;;12.10;84.40;;;;;;5052418;28;20067;-75
2023/06/04 00:24:16;;;;;;;2.78;0.90;;;12.20;81.60;;;;;;5051759;28;19916;-75
2023/06/04 00:26:42;;;;;;;2.85;1.05;;;12.20;81.60;;;;;;5051557;28;20033;-75
2023/06/04 00:29:08;;;;;;;;;;;12.20;82.30;;;;;;5051988;28;20032;-74
2023/06/04 00:31:34;;;;;;;5.43;1.08;;;12.20;82.90;;;;;;5051638;28;19908;-75
2023/06/04 00:33:59;;;;;;;;;;;12.20;83.50;;;;;;5052065;28;20517;-75
2023/06/04 00:36:25;;;;;;;4.65;1.02;;;12.20;83.80;;;;;;5051784;28;19954;-75
2023/06/04 00:38:50;;;;;;;;;;;12.20;83.50;;;;;;5051982;28;20071;-74
2023/06/04 00:41:16;;;;;;;2.40;0.90;;;12.10;84.00;;;;;;5051340;28;19909;-75
2023/06/04 00:43:45;;;;;;;;;;;12.10;85.10;;;;;;5052009;28;20029;-74
2023/06/04 00:46:17;;;;;;;4.28;0.90;;;12.00;86.50;;;;;;5051342;28;19944;-75
2023/06/04 00:48:44;;;;;;;2.50;0.77;;;12.00;84.80;;;;;;5051408;28;20037;-75
2023/06/04 00:51:11;;;;;;;2.35;0.90;;;12.00;82.80;;;;;;5049998;28;20043;-74
2023/06/04 00:53:37;;;;;;;6.53;1.17;;;12.00;81.80;;;;;;5049952;28;20037;-73
2023/06/04 00:56:05;;;;;;;;;;;12.10;81.30;;;;;;5051811;28;20072;-74
2023/06/04 00:58:31;;;;;;;2.70;1.08;;;12.10;79.80;;;;;;5051639;28;19908;-75
2023/06/04 01:00:59;;;;;;;;;;;12.20;77.70;;;;;;5050337;28;20167;-75
2023/06/04 01:03:32;;;;;;;8.60;0.95;;;12.50;75.00;;;;;;5051124;28;19909;-74
2023/06/04 01:06:42;;;;;;;5.75;0.80;;;12.60;74.70;;;;;;5049857;28;20040;-74
2023/06/04 01:09:10;;;;;;;3.00;0.88;;;12.80;73.10;;;;;;5049183;28;20500;-74
2023/06/04 01:11:38;;;;;;;4.88;1.00;;;12.90;72.60;;;;;;5050619;28;20498;-74
2023/06/04 01:14:05;;;;;;;2.65;0.70;;;13.00;72.80;;;;;;5051001;28;20098;-74
2023/06/04 01:16:39;;;;;;;5.40;0.95;;;13.00;70.60;;;;;;5050669;28;20032;-74
2023/06/04 01:19:20;;;;;;;5.57;0.85;;;13.20;69.80;;;;;;5050611;28;20044;-73
2023/06/04 01:21:50;;;;;;;4.32;0.73;;;13.20;70.30;;;;;;5050708;28;20036;-74
2023/06/04 01:24:21;;;;;;;2.55;0.90;;;13.20;72.00;;;;;;5049245;28;20485;-73
2023/06/04 01:26:48;;;;;;;2.15;0.75;;;13.10;73.90;;;;;;5050608;28;20032;-74
2023/06/04 01:29:13;;;;;;;6.05;0.80;;;13.00;74.90;;;;;;5050336;28;20083;-75
2023/06/04 01:31:40;;;;;;;;;;;12.80;75.90;;;;;;5051054;28;20418;-75
2023/06/04 01:34:08;;;;;;;2.40;0.80;;;12.70;76.60;;;;;;5050547;28;20288;-74
2023/06/04 01:36:33;;;;;;;3.92;1.30;;;12.60;77.10;;;;;;5048932;28;20040;-74
2023/06/04 01:39:00;;;;;;;;;;;12.50;78.10;;;;;;5049231;28;20025;-74
2023/06/04 01:41:26;;;;;;;4.05;0.50;;;12.40;78.40;;;;;;5050263;28;19995;-75
2023/06/04 01:43:51;;;;;;;;;;;12.30;78.50;;;;;;5049657;28;20147;-75
2023/06/04 01:46:17;;;;;;;3.38;0.90;;;12.20;78.50;;;;;;5048975;28;20386;-74
2023/06/04 01:48:43;;;;;;;;;;;12.20;78.00;;;;;;5049620;28;20052;-74
2023/06/04 01:51:08;;;;;;;3.05;0.80;;;12.20;77.10;;;;;;5048630;28;19999;-75
2023/06/04 01:53:34;;;;;;;;;;;12.20;77.70;;;;;;5049372;28;20032;-74
2023/06/04 01:56:01;;;;;;;3.15;0.70;;;12.20;78.30;;;;;;5049878;28;19999;-75
2023/06/04 01:58:27;;;;;;;3.47;1.17;;;12.20;77.50;;;;;;5049916;28;20048;-73
2023/06/04 02:00:54;;;;;;;;;;;12.20;79.10;;;;;;5049223;28;20021;-74
2023/06/04 02:03:21;;;;;;;4.55;0.82;;;12.10;77.80;;;;;;5049771;28;19908;-75
2023/06/04 02:05:51;;;;;;;2.35;1.63;;;12.20;76.50;;;;;;5048146;28;20041;-74
2023/06/04 02:08:20;;;;;;;6.43;1.13;;;12.30;74.40;;;;;;5048635;28;20104;-72
2023/06/04 02:10:49;;;;;;;3.33;0.63;;;12.40;75.20;;;;;;5049793;28;20035;-74
2023/06/04 02:13:15;;;;;;;8.00;0.70;;;12.30;74.80;;;;;;5049621;28;20552;-74
2023/06/04 02:15:41;;;;;;;3.15;0.70;;;12.30;75.00;;;;;;5048169;28;20029;-73
2023/06/04 02:18:15;;;;;;;;;;;12.30;75.50;;;;;;5050216;28;20087;-72
2023/06/04 02:20:42;;;;;;;6.47;0.90;;;12.20;75.20;;;;;;5049557;28;19912;-74
2023/06/04 02:23:08;;;;;;;3.95;1.02;;;12.20;76.40;;;;;;5047834;28;20035;-74
2023/06/04 02:25:33;;;;;;;;;;;12.20;76.20;;;;;;5048511;28;20025;-73
2023/06/04 02:27:59;;;;;;;5.07;0.90;;;12.20;75.90;;;;;;5048252;28;19909;-74
2023/06/04 02:30:25;;;;;;;5.07;0.90;;;12.10;75.90;;;;;;5049457;28;20021;-74
2023/06/04 02:32:51;;;;;;;;;;;12.10;76.00;;;;;;5050068;28;20032;-74
2023/06/04 02:35:17;;;;;;;3.75;0.90;;;12.10;76.80;;;;;;5049380;28;20002;-75
2023/06/04 02:37:43;;;;;;;6.78;0.70;;;12.10;76.00;;;;;;5048121;28;20037;-74
2023/06/04 02:40:10;;;;;;;;;;;12.10;76.80;;;;;;5048308;28;20547;-74
2023/06/04 02:42:35;;;;;;;4.47;0.77;;;12.10;77.30;;;;;;5049506;28;19909;-75
2023/06/04 02:45:01;;;;;;;;;;;12.10;77.30;;;;;;5049761;28;20083;-74
2023/06/04 02:47:27;;;;;;;2.78;1.02;;;12.10;77.20;;;;;;5049356;28;19908;-73
2023/06/04 02:49:53;;;;;;;3.35;0.70;;;12.00;77.70;;;;;;5049404;28;20036;-74
2023/06/04 02:52:18;;;;;;;;;;;12.10;77.40;;;;;;5049847;28;20441;-73
2023/06/04 02:54:44;;;;;;;10.05;2.00;;;12.10;78.80;;;;;;5049158;28;19923;-73
2023/06/04 02:57:09;;;;;;;;;;;12.00;78.10;;;;;;5047997;28;20056;-74
2023/06/04 02:59:36;;;;;;;4.18;1.70;;;12.00;78.80;;;;;;5049137;28;19962;-74
2023/06/04 03:02:02;;;;;;;4.03;0.80;;;12.00;80.10;;;;;;5047914;28;20033;-74
2023/06/04 03:04:33;;;;;;;3.90;0.80;;;12.00;79.60;;;;;;5047862;28;20033;-74
2023/06/04 03:07:01;;;;;;;3.83;0.95;;;12.00;80.30;;;;;;5047811;28;20115;-75
2023/06/04 03:09:26;;;;;;;9.00;0.90;;;12.10;79.60;;;;;;5048879;28;20493;-74
2023/06/04 03:11:52;;;;;;;;;;;12.00;79.90;;;;;;5049414;28;20043;-74
2023/06/04 03:14:18;;;;;;;2.78;0.57;;;12.00;80.30;;;;;;5049210;28;19924;-73
2023/06/04 03:16:45;;;;;;;;;;;12.00;80.30;;;;;;5049463;28;20494;-74
2023/06/04 03:19:11;;;;;;;4.30;0.80;;;12.00;79.70;;;;;;5051770;28;20003;-74
2023/06/04 03:21:39;;;;;;;;;;;12.00;79.50;;;;;;5053638;28;20100;-74
2023/06/04 03:24:05;;;;;;;2.85;1.15;;;12.00;81.20;;;;;;5051727;28;19915;-74
2023/06/04 03:26:31;;;;;;;2.83;1.00;;;12.00;81.40;;;;;;5051633;28;20132;-74
2023/06/04 03:28:56;;;;;;;;;;;12.00;82.00;;;;;;5051961;28;20116;-74
2023/06/04 03:31:22;;;;;;;2.17;0.77;;;12.00;84.50;;;;;;5052825;28;19963;-74
2023/06/04 03:33:48;;;;;;;;;;;12.10;84.60;;;;;;5051996;28;20021;-74
2023/06/04 03:36:13;;;;;;;2.92;0.85;;;12.10;83.80;;;;;;5051236;28;20299;-74
2023/06/04 03:38:39;;;;;;;;;;;12.20;83.50;;;;;;5053146;28;20086;-75
2023/06/04 03:41:04;;;;;;;5.28;0.80;;;12.20;82.80;;;;;;5051371;28;20004;-74
2023/06/04 03:43:30;;;;;;;;;;;12.20;82.50;;;;;;5053129;28;20386;-74
2023/06/04 03:45:55;;;;;;;3.90;0.98;;;12.30;84.80;;;;;;5051139;28;20436;-74
2023/06/04 03:48:21;;;;;;;;;;;12.30;84.00;;;;;;5053103;28;20393;-73
2023/06/04 03:50:47;;;;;;;3.28;0.70;;;12.40;83.10;;;;;;5052450;28;19912;-74
2023/06/04 03:53:12;;;;;;;;;;;12.50;84.40;;;;;;5052766;28;20032;-74
2023/06/04 03:55:38;;;;;;;6.45;1.17;;;12.60;86.80;;;;;;5052071;28;19905;-74
2023/06/04 03:58:04;;;;;;;;;;;12.70;86.70;;;;;;5051518;28;20097;-74
2023/06/04 04:00:29;;;;;;;5.53;0.77;;;12.80;88.00;;;;;;5052439;28;19905;-74
2023/06/04 04:02:56;;;;;;;;;;;13.00;87.80;;;;;;5052938;28;20059;-74
2023/06/04 04:05:21;;;;;;;2.95;1.10;;;13.20;87.90;;;;;;5052482;28;19904;-74
2023/06/04 04:07:48;;;;;;;;;;;13.40;87.20;;;;;;5052692;28;20032;-74
2023/06/04 04:10:13;;;;;;;2.45;0.80;;;13.60;87.60;;;;;;5052303;28;19912;-74
2023/06/04 04:12:39;;;;;;;;;;;13.70;84.30;;;;;;5051318;28;20044;-74
2023/06/04 04:15:05;;;;;;;3.15;0.90;;;13.80;83.60;;;;;;5050288;28;20262;-74
2023/06/04 04:17:31;;;;;;;4.45;1.45;;;13.90;82.20;;;;;;5052111;28;20048;-74
2023/06/04 04:19:56;;;;;;;;;;;14.10;80.80;;;;;;5052492;28;20029;-75
2023/06/04 04:22:22;;;;;;;3.63;0.98;;;14.20;80.60;;;;;;5051909;28;19909;-76
2023/06/04 04:24:47;;;;;;;;;;;14.40;80.50;;;;;;5052325;28;20037;-75
2023/06/04 04:27:15;;;;;;;2.42;0.68;;;14.50;80.50;;;;;;5051799;28;19935;-74
2023/06/04 04:29:43;;;;;;;4.03;0.82;;;14.70;80.50;;;;;;5050169;28;20036;-74
2023/06/04 04:32:12;;;;;;;3.92;1.15;;;14.90;79.90;;;;;;5051555;28;20025;-75
2023/06/04 04:34:43;;;;;;;3.63;1.00;;;15.10;80.10;;;;;;5051464;28;20540;-75
2023/06/04 04:37:09;;;;;;;6.63;0.82;;;15.20;78.00;;;;;;5051163;28;20090;-75
2023/06/04 04:39:35;;;;;;;2.75;0.85;;;15.50;76.10;;;;;;5050267;28;20029;-74
2023/06/04 04:42:02;;;;;;;7.78;1.45;;;15.60;75.90;;;;;;5051656;28;20025;-75
2023/06/04 04:44:28;;;;;;;2.03;0.80;;;15.90;77.50;;;;;;5051412;28;20112;-75
2023/06/04 04:46:54;;;;;;;8.55;1.00;;;16.20;76.50;;;;;;5051642;28;20112;-75
2023/06/04 04:49:19;;;;;;;;;;;16.50;75.80;;;;;;5051685;28;20031;-76
2023/06/04 04:51:45;;;;;;;3.95;1.05;;;16.80;78.00;;;;;;5050021;28;20012;-76
2023/06/04 04:54:10;;;;;;;3.03;0.82;;;17.00;77.80;;;;;;5050118;28;20460;-74
2023/06/04 04:56:36;;;;;;;5.03;1.30;;;17.10;77.50;;;;;;5049724;28;20475;-75
2023/06/04 04:59:02;;;;;;;3.50;0.63;;;17.20;77.10;;;;;;5051249;28;20033;-74
2023/06/04 05:01:28;;;;;;;2.08;0.55;;;17.40;76.50;;;;;;5050832;28;20477;-74
2023/06/04 05:03:53;;;;;;;3.60;1.05;;;17.40;74.80;;;;;;5051009;28;20028;-74
2023/06/04 05:06:19;;;;;;;2.40;0.60;;;17.60;73.90;;;;;;5051141;28;20029;-76
2023/06/04 05:08:45;;;;;;;2.53;0.98;;;17.70;71.90;;;;;;5050950;28;20035;-74
2023/06/04 05:11:11;;;;;;;5.32;1.02;;;17.70;68.90;;;;;;5050836;28;20104;-75
2023/06/04 05:13:36;;;;;;;2.13;0.77;;;17.70;67.90;;;;;;5050766;28;20207;-74
2023/06/04 05:16:06;;;;;;;4.57;1.13;;;17.80;68.80;;;;;;5050725;28;20090;-74
2023/06/04 05:18:40;;;;;;;1.88;0.82;;;17.80;69.50;;;;;;5050515;28;20021;-74
2023/06/04 05:21:06;;;;;;;2.28;0.65;;;18.00;69.30;;;;;;5050301;28;20024;-74
2023/06/04 05:23:34;;;;;;;4.28;0.70;;;18.00;66.90;;;;;;5050632;28;20022;-74
2023/06/04 05:26:01;;;;;;;2.47;0.95;;;18.00;66.60;;;;;;5050556;28;20039;-75
2023/06/04 05:28:27;;;;;;;1.95;0.70;;;18.10;67.50;;;;;;5050684;28;20071;-75
2023/06/04 05:30:58;;;;;;;5.63;0.88;;;18.30;66.70;;;;;;5050641;28;20481;-75
2023/06/04 05:33:24;;;;;;;5.80;0.82;;;18.50;67.60;;;;;;5050531;28;20029;-75
2023/06/04 05:35:59;;;;;;;3.20;1.25;;;18.70;64.90;;;;;;5050346;28;20087;-74
2023/06/04 05:38:26;;;;;;;5.50;1.02;;;18.80;62.90;;;;;;5050147;28;20040;-74
2023/06/04 05:40:55;;;;;;;2.95;0.80;;;19.10;61.90;;;;;;5048605;28;20137;-74
2023/06/04 05:43:21;;;;;;;2.05;0.70;;;19.40;62.30;;;;;;5050335;28;20047;-75
2023/06/04 05:45:47;;;;;;;3.42;1.17;;;19.80;60.30;;;;;;5050608;28;20028;-76
2023/06/04 05:48:13;;;;;;;2.35;0.95;;;20.30;57.30;;;;;;5050725;28;20561;-75
2023/06/04 05:50:38;;;;;;;2.08;0.60;;;20.90;53.70;;;;;;5050310;28;20104;-75
2023/06/04 05:53:04;;;;;;;2.25;0.98;;;21.70;52.20;;;;;;5050187;28;20025;-74
2023/06/04 05:55:30;;;;;;;4.15;0.70;;;22.40;51.80;;;;;;5050160;28;20056;-74
2023/06/04 05:57:55;;;;;;;4.50;0.90;;;22.70;49.00;;;;;;5049978;28;20052;-75
2023/06/04 06:00:22;;;;;;;4.85;0.93;;;23.10;46.50;;;;;;5049901;28;20029;-75
2023/06/04 06:02:49;;;;;;;4.13;0.90;;;23.90;45.30;;;;;;5049951;28;20029;-75
2023/06/04 06:05:16;;;;;;;3.35;1.27;;;25.30;42.30;;;;;;5049617;28;20025;-75
2023/06/04 06:07:42;;;;;;;3.97;1.00;;;26.60;42.60;;;;;;5048506;28;20029;-76
2023/06/04 06:10:08;;;;;;;4.07;0.93;;;26.60;41.90;;;;;;5049669;28;20054;-75
2023/06/04 06:12:34;;;;;;;5.55;1.00;;;27.20;41.60;;;;;;5049577;28;20040;-75
2023/06/04 06:14:59;;;;;;;9.70;1.20;;;27.80;40.30;;;;;;5049380;28;20029;-74
2023/06/04 06:17:25;;;;;;;5.32;1.40;;;28.50;37.70;;;;;;5049633;28;20032;-74
2023/06/04 06:19:52;;;;;;;4.03;0.90;;;29.10;37.20;;;;;;5049332;28;20074;-73
2023/06/04 06:22:18;;;;;;;4.57;1.30;;;29.70;35.70;;;;;;5049519;28;20063;-74
2023/06/04 06:24:43;;;;;;;4.80;1.05;;;30.30;34.00;;;;;;5049601;28;20025;-73
2023/06/04 06:27:10;;;;;;;3.83;1.00;;;30.70;35.00;;;;;;5049307;28;20466;-73
2023/06/04 06:29:36;;;;;;;6.50;1.42;;;31.10;38.00;;;;;;5049273;28;20052;-74
2023/06/04 06:32:02;;;;;;;4.00;1.20;;;31.10;38.00;;;;;;5049634;28;20394;-74
2023/06/04 06:34:28;;;;;;;1.67;0.85;;;30.90;37.70;;;;;;5049543;28;20028;-74
2023/06/04 06:36:54;;;;;;;16.20;1.85;;;30.80;37.40;;;;;;5049138;28;20473;-74
2023/06/04 06:39:20;;;;;;;4.65;0.90;;;31.00;36.90;;;;;;5049085;28;20497;-74
2023/06/04 06:41:46;;;;;;;6.70;1.42;;;31.10;37.00;;;;;;5049200;28;20024;-74
2023/06/04 06:44:11;;;;;;;4.57;1.63;;;31.10;37.40;;;;;;5048339;28;20398;-74
2023/06/04 06:46:37;;;;;;;5.85;1.02;;;30.90;37.80;;;;;;5049311;28;20024;-74
2023/06/04 06:49:03;;;;;;;6.68;0.80;;;31.00;37.20;;;;;;5049262;28;20532;-74
2023/06/04 06:51:28;;;;;;;3.58;1.20;;;31.00;36.70;;;;;;5049043;28;20033;-74
2023/06/04 06:53:54;;;;;;;3.67;1.27;;;31.10;35.90;;;;;;5049234;28;20025;-74
2023/06/04 06:56:20;;;;;;;2.80;1.23;;;31.20;35.50;;;;;;5048664;28;20131;-74
2023/06/04 06:58:45;;;;;;;3.45;0.90;;;31.20;35.80;;;;;;5049396;28;20025;-74
2023/06/04 07:01:12;;;;;;;8.43;1.25;;;31.20;35.10;;;;;;5049040;28;20036;-75
2023/06/04 07:03:40;;;;;;;4.20;1.00;;;31.20;34.70;;;;;;5047906;28;20489;-74
2023/06/04 07:06:06;;;;;;;3.95;1.08;;;31.30;32.90;;;;;;5049190;28;20107;-74
2023/06/04 07:08:33;;;;;;;4.32;1.30;;;31.50;32.80;;;;;;5048881;28;20103;-75
2023/06/04 07:10:59;;;;;;;2.80;1.00;;;31.40;33.20;;;;;;5049095;28;20154;-74
2023/06/04 07:13:25;;;;;;;3.08;1.00;;;31.20;33.00;;;;;;5049135;28;20025;-74
2023/06/04 07:15:51;;;;;;;2.17;0.80;;;31.20;33.40;;;;;;5049078;28;20401;-74
2023/06/04 07:18:16;;;;;;;3.55;0.77;;;31.40;32.60;;;;;;5049005;28;20045;-74
2023/06/04 07:20:42;;;;;;;3.05;0.88;;;31.60;32.80;;;;;;5048048;28;20036;-73
2023/06/04 07:23:08;;;;;;;3.35;1.02;;;31.10;31.70;;;;;;5049335;28;20032;-74
2023/06/04 07:25:34;;;;;;;7.90;1.20;;;30.70;31.80;;;;;;5048927;28;20029;-74
2023/06/04 07:28:03;;;;;;;3.03;1.00;;;31.10;32.00;;;;;;5047633;28;20033;-74
2023/06/04 07:30:30;;;;;;;8.23;1.10;;;31.00;32.50;;;;;;5048926;28;20021;-74
2023/06/04 07:32:56;;;;;;;3.78;1.02;;;31.40;31.80;;;;;;5048892;28;20055;-74
2023/06/04 07:35:21;;;;;;;9.38;1.10;;;31.30;30.50;;;;;;5048773;28;20033;-72
2023/06/04 07:37:48;;;;;;;4.63;1.10;;;31.20;30.80;;;;;;5048786;28;20675;-74
2023/06/04 07:40:15;;;;;;;2.72;1.00;;;31.80;29.40;;;;;;5048758;28;20048;-73
2023/06/04 07:42:42;;;;;;;5.45;0.95;;;31.40;30.20;;;;;;5048844;28;20025;-74
2023/06/04 07:45:08;;;;;;;2.35;0.88;;;31.40;28.70;;;;;;5048560;28;20029;-74
2023/06/04 07:47:36;;;;;;;6.15;1.15;;;31.40;29.80;;;;;;5048714;28;20032;-74
2023/06/04 07:50:03;;;;;;;4.72;1.02;;;31.40;29.60;;;;;;5048859;28;20500;-74
2023/06/04 07:52:28;;;;;;;2.97;1.15;;;31.30;30.80;;;;;;5047400;28;20047;-74
2023/06/04 07:54:54;;;;;;;1.85;0.90;;;31.30;30.20;;;;;;5048565;28;20029;-74
2023/06/04 07:57:20;;;;;;;3.70;1.10;;;31.50;29.90;;;;;;5048292;28;20136;-74
2023/06/04 07:59:45;;;;;;;4.15;1.15;;;31.70;29.50;;;;;;5047246;28;20493;-74
2023/06/04 08:02:11;;;;;;;4.13;0.90;;;32.00;29.90;;;;;;5046698;28;20390;-74
2023/06/04 08:04:37;;;;;;;1.77;0.73;;;31.90;29.80;;;;;;5049963;28;20029;-73
2023/06/04 08:07:02;;;;;;;3.65;1.40;;;32.10;30.40;;;;;;5051572;28;20386;-74
2023/06/04 08:09:28;;;;;;;3.15;1.00;;;32.00;29.90;;;;;;5051782;28;20551;-73
2023/06/04 08:11:54;;;;;;;6.88;1.02;;;32.30;29.80;;;;;;5051217;28;20041;-75
2023/06/04 08:14:22;;;;;;;3.55;1.10;;;32.50;29.80;;;;;;5051932;28;20029;-73
2023/06/04 08:16:47;;;;;;;2.85;0.95;;;32.40;30.00;;;;;;5051988;28;20048;-73
2023/06/04 08:19:13;;;;;;;5.15;1.23;;;32.20;29.20;;;;;;5051892;28;20456;-72
2023/06/04 08:21:40;;;;;;;2.13;0.80;;;31.80;29.40;;;;;;5051586;28;20309;-72
2023/06/04 08:24:08;;;;;;;3.95;0.95;;;31.80;30.30;;;;;;5051664;28;20434;-72
2023/06/04 08:26:33;;;;;;;2.88;0.90;;;32.00;29.70;;;;;;5051670;28;20032;-72
2023/06/04 08:29:04;;;;;;;5.03;1.00;;;32.70;29.80;;;;;;5051667;28;20025;-74
2023/06/04 08:31:30;;;;;;;3.20;1.00;;;32.90;29.00;;;;;;5050064;28;20056;-73
2023/06/04 08:33:55;;;;;;;9.00;1.27;;;32.60;29.20;;;;;;5050007;28;20061;-73
2023/06/04 08:36:21;;;;;;;3.45;1.08;;;32.70;28.90;;;;;;5051546;28;20088;-74
2023/06/04 08:38:50;;;;;;;3.38;1.05;;;32.90;29.10;;;;;;5051406;28;20143;-73
2023/06/04 08:41:27;;;;;;;4.22;1.23;;;32.80;30.00;;;;;;5051559;28;20052;-74
2023/06/04 08:43:57;;;;;;;14.70;1.73;;;32.60;29.70;;;;;;5051308;28;20060;-74
2023/06/04 08:46:23;;;;;;;3.42;1.10;;;32.80;30.20;;;;;;5051328;28;20032;-73
2023/06/04 08:48:50;;;;;;;2.13;1.13;;;32.80;30.80;;;;;;5051391;28;20028;-75
2023/06/04 08:51:16;;;;;;;2.95;1.20;;;33.10;29.80;;;;;;5050974;28;20036;-73
2023/06/04 08:53:42;;;;;;;5.72;1.23;;;33.10;29.50;;;;;;5049676;28;20025;-74
2023/06/04 08:56:09;;;;;;;5.53;1.25;;;33.00;30.50;;;;;;5051009;28;20132;-74
2023/06/04 08:58:36;;;;;;;6.60;1.27;;;32.70;29.90;;;;;;5051176;28;20060;-74
2023/06/04 09:01:02;;;;;;;3.10;1.10;;;32.90;30.10;;;;;;5050771;28;20067;-74
2023/06/04 09:03:32;;;;;;;5.25;1.10;;;33.00;30.00;;;;;;5050331;28;20033;-74
2023/06/04 09:05:59;;;;;;;3.15;1.27;;;32.90;30.50;;;;;;5049492;28;20052;-75
2023/06/04 09:08:27;;;;;;;7.38;1.15;;;32.70;30.80;;;;;;5049408;28;20052;-73
2023/06/04 09:10:55;;;;;;;2.53;0.90;;;32.70;31.00;;;;;;5049673;28;20493;-73
2023/06/04 09:13:27;;;;;;;3.40;1.20;;;32.80;29.60;;;;;;5050886;28;20052;-74
2023/06/04 09:16:03;;;;;;;5.75;1.10;;;32.60;28.70;;;;;;5050869;28;20468;-74
2023/06/04 09:18:29;;;;;;;6.13;1.13;;;32.50;29.50;;;;;;5050689;28;20033;-74
2023/06/04 09:21:06;;;;;;;4.20;1.15;;;32.50;29.10;;;;;;5050651;28;20108;-73
2023/06/04 09:23:35;;;;;;;2.08;1.10;;;32.60;29.50;;;;;;5050870;28;20040;-74
2023/06/04 09:26:09;;;;;;;3.88;1.30;;;32.70;28.90;;;;;;5051104;28;20398;-73
2023/06/04 09:28:36;;;;;;;6.80;1.23;;;32.30;29.80;;;;;;5049164;28;20029;-72
2023/06/04 09:31:02;;;;;;;3.08;1.20;;;32.00;30.60;;;;;;5050644;28;20084;-72
2023/06/04 09:33:28;;;;;;;4.88;0.90;;;32.10;30.90;;;;;;5049071;28;20032;-74
2023/06/04 09:35:58;;;;;;;6.53;1.05;;;31.90;30.20;;;;;;5050277;28;20033;-73
2023/06/04 09:38:36;;;;;;;3.50;1.10;;;32.10;30.80;;;;;;5050406;28;20039;-73
2023/06/04 09:41:05;;;;;;;5.93;1.42;;;32.20;31.50;;;;;;5050477;28;20017;-73
2023/06/04 09:43:32;;;;;;;9.82;1.42;;;32.30;29.90;;;;;;5050354;28;20033;-75
2023/06/04 09:46:15;;;;;;;3.92;1.17;;;32.30;29.30;;;;;;5048941;28;20033;-75
2023/06/04 09:48:43;;;;;;;9.07;1.48;;;32.80;29.60;;;;;;5050352;28;20088;-73
2023/06/04 09:51:18;;;;;;;2.28;0.88;;;32.80;29.80;;;;;;5050052;28;20104;-74
2023/06/04 09:53:52;;;;;;;;;;;32.80;30.00;;;;;;5050614;28;20516;-74
2023/06/04 09:56:18;;;;;;;6.72;1.08;;;32.70;30.30;;;;;;5049634;28;19946;-74
2023/06/04 09:58:45;;;;;;;5.63;1.13;;;32.50;30.20;;;;;;5050127;28;20025;-73
2023/06/04 10:01:11;;;;;;;2.63;1.17;;;32.30;30.70;;;;;;5048285;28;20378;-73
2023/06/04 10:03:42;;;;;;;6.95;1.33;;;31.80;31.20;;;;;;5049702;28;20036;-74
2023/06/04 10:06:08;;;;;;;5.28;1.40;;;31.50;30.30;;;;;;5049876;28;20535;-74
2023/06/04 10:08:34;;;;;;;4.47;1.30;;;30.90;30.20;;;;;;5049804;28;20394;-73
2023/06/04 10:11:01;;;;;;;3.05;1.20;;;29.90;31.60;;;;;;5048286;28;20067;-73
2023/06/04 10:13:35;;;;;;;2.72;1.25;;;29.80;32.30;;;;;;5049424;28;20025;-73
2023/06/04 10:16:02;;;;;;;2.28;1.08;;;29.50;32.80;;;;;;5049713;28;20317;-73
2023/06/04 10:18:31;;;;;;;8.65;1.50;;;29.10;35.40;;;;;;5048122;28;20037;-73
2023/06/04 10:20:57;;;;;;;2.83;0.90;;;29.00;34.70;;;;;;5047981;28;20116;-75
2023/06/04 10:23:23;;;;;;;2.10;1.10;;;28.90;36.10;;;;;;5048864;28;20017;-73
2023/06/04 10:25:52;;;;;;;5.93;1.00;;;28.80;34.60;;;;;;5049217;28;20482;-73
2023/06/04 10:28:21;;;;;;;3.58;1.25;;;28.50;36.00;;;;;;5031316;28;20520;-73
2023/06/04 10:30:50;;;;;;;13.32;1.40;;;28.60;35.90;;;;;;5049395;28;20543;-73
2023/06/04 10:33:18;;;;;;;6.18;1.88;;;28.50;36.00;;;;;;5049454;28;20029;-73
2023/06/04 10:35:43;;;;;;;3.25;1.27;;;28.60;37.40;;;;;;5049399;28;20094;-73
2023/06/04 10:38:13;;;;;;;7.00;1.30;;;28.60;36.10;;;;;;5047785;28;20465;-74
2023/06/04 10:40:39;;;;;;;4.53;1.65;;;28.50;36.50;;;;;;5049435;28;20374;-74
2023/06/04 10:43:07;;;;;;;8.75;1.50;;;28.30;35.90;;;;;;5049574;28;20111;-73
2023/06/04 10:45:33;;;;;;;3.78;1.50;;;27.90;34.60;;;;;;5049174;28;20028;-74
2023/06/04 10:48:02;;;;;;;8.45;1.42;;;28.00;36.90;;;;;;5047913;28;20028;-73
2023/06/04 10:50:28;;;;;;;3.55;1.23;;;28.00;36.30;;;;;;5049056;28;20023;-74
2023/06/04 10:52:57;;;;;;;3.97;1.30;;;28.10;36.90;;;;;;5049098;28;20374;-73
2023/06/04 10:55:23;;;;;;;3.65;1.23;;;28.10;35.90;;;;;;5048943;28;20037;-74
2023/06/04 10:58:00;;;;;;;6.40;1.25;;;28.10;35.60;;;;;;5048757;28;20059;-74
2023/06/04 11:00:41;;;;;;;4.95;1.60;;;28.00;35.90;;;;;;5047580;28;20028;-73
2023/06/04 11:03:07;;;;;;;3.47;0.98;;;27.80;36.10;;;;;;5048725;28;20052;-75
2023/06/04 11:05:42;;;;;;;3.47;1.13;;;27.80;35.30;;;;;;5048693;28;20032;-75
2023/06/04 11:08:09;;;;;;;7.90;1.02;;;27.90;36.80;;;;;;5048857;28;20025;-74
2023/06/04 11:10:43;;;;;;;2.35;1.10;;;28.00;35.50;;;;;;5047692;28;20025;-75
2023/06/04 11:13:09;;;;;;;3.92;1.10;;;27.80;36.40;;;;;;5047315;28;20443;-75
2023/06/04 11:15:41;;;;;;;10.63;1.33;;;27.90;36.40;;;;;;5049223;28;20036;-74
2023/06/04 11:18:07;;;;;;;3.20;1.00;;;27.90;37.10;;;;;;5049046;28;20505;-74
2023/06/04 11:20:33;;;;;;;6.15;1.30;;;27.70;37.70;;;;;;5048665;28;20329;-75
2023/06/04 11:23:00;;;;;;;4.22;1.27;;;27.60;36.70;;;;;;5045735;28;20029;-73
2023/06/04 11:25:26;;;;;;;1.92;1.00;;;27.40;36.70;;;;;;5047386;28;20025;-74
2023/06/04 11:27:53;;;;;;;2.97;1.30;;;27.20;36.90;;;;;;5048725;28;20029;-74
2023/06/04 11:30:19;;;;;;;2.83;0.77;;;27.00;37.90;;;;;;5048647;28;20021;-74
2023/06/04 11:32:45;;;;;;;2.17;0.90;;;27.00;37.80;;;;;;5048903;28;20071;-74
2023/06/04 11:35:11;;;;;;;3.58;1.20;;;26.90;38.00;;;;;;5048585;28;20036;-75
2023/06/04 11:37:37;;;;;;;3.25;1.20;;;27.00;37.40;;;;;;5048546;28;20544;-74
2023/06/04 11:40:26;;;;;;;2.00;1.00;;;26.90;38.40;;;;;;5051350;28;20035;-73
2023/06/04 11:42:52;;;;;;;4.25;1.35;;;26.80;38.20;;;;;;5051383;28;20412;-74
2023/06/04 11:45:19;;;;;;;5.85;1.23;;;26.80;37.70;;;;;;5051092;28;20108;-74
2023/06/04 11:47:52;;;;;;;4.78;1.48;;;27.00;37.30;;;;;;5052379;28;20024;-74
2023/06/04 11:50:19;;;;;;;5.70;1.08;;;27.20;37.10;;;;;;5052470;28;20025;-74
2023/06/04 11:52:45;;;;;;;3.45;1.42;;;27.30;36.40;;;;;;5052421;28;20112;-74
2023/06/04 11:55:11;;;;;;;4.38;1.40;;;27.30;37.20;;;;;;5050657;28;20116;-75
2023/06/04 11:57:38;;;;;;;4.28;1.02;;;27.30;37.70;;;;;;5052061;28;20053;-74
2023/06/04 12:00:11;;;;;;;3.85;1.08;;;27.20;37.20;;;;;;5052193;28;20199;-75
2023/06/04 12:02:38;;;;;;;6.63;1.52;;;27.10;37.40;;;;;;5052259;28;20389;-75
2023/06/04 12:05:14;;;;;;;2.92;1.17;;;26.90;37.80;;;;;;5052162;28;20017;-75
2023/06/04 12:07:41;;;;;;;3.75;1.20;;;26.60;38.30;;;;;;5052224;28;20492;-75
2023/06/04 12:10:11;;;;;;;4.20;1.65;;;26.40;38.30;;;;;;5050970;28;20025;-76
2023/06/04 12:12:37;;;;;;;3.90;1.50;;;26.30;39.00;;;;;;5052219;28;20025;-75
2023/06/04 12:15:05;;;;;;;3.38;1.20;;;26.30;39.60;;;;;;5052024;28;20029;-75
2023/06/04 12:17:31;;;;;;;7.60;1.27;;;26.30;39.10;;;;;;5052129;28;20040;-75
2023/06/04 12:19:58;;;;;;;2.80;1.35;;;26.20;38.80;;;;;;5050827;28;20028;-74
2023/06/04 12:22:26;;;;;;;4.78;1.45;;;26.30;38.90;;;;;;5051869;28;20056;-74
2023/06/04 12:24:57;;;;;;;2.22;1.40;;;26.30;38.50;;;;;;5050586;28;20035;-75
2023/06/04 12:27:25;;;;;;;4.72;1.58;;;26.40;40.00;;;;;;5051887;28;20044;-75
2023/06/04 12:30:09;;;;;;;3.83;1.40;;;26.50;39.70;;;;;;5050395;28;20382;-76
2023/06/04 12:32:35;;;;;;;4.00;1.55;;;26.50;39.20;;;;;;5051677;28;20427;-75
2023/06/04 12:35:01;;;;;;;5.30;1.60;;;26.60;40.70;;;;;;5051313;28;20024;-74
2023/06/04 12:37:27;;;;;;;9.88;1.25;;;26.90;40.30;;;;;;5051396;28;20033;-75
2023/06/04 12:39:53;;;;;;;3.15;1.40;;;26.90;40.00;;;;;;5051182;28;20059;-72
2023/06/04 12:42:20;;;;;;;9.07;1.48;;;27.00;39.00;;;;;;5051115;28;20078;-73
2023/06/04 12:44:46;;;;;;;5.63;1.40;;;26.90;38.60;;;;;;5051291;28;20036;-73
2023/06/04 12:47:11;;;;;;;2.83;1.25;;;26.80;39.00;;;;;;5051124;28;20025;-73
2023/06/04 12:49:38;;;;;;;4.25;1.23;;;26.90;40.20;;;;;;5050839;28;20025;-72
2023/06/04 12:52:04;;;;;;;5.25;1.40;;;27.00;40.70;;;;;;5051346;28;20055;-73
2023/06/04 12:54:30;;;;;;;6.25;1.60;;;27.10;40.90;;;;;;5050817;28;20561;-74
2023/06/04 12:56:57;;;;;;;14.20;1.17;;;27.20;39.90;;;;;;5050818;28;20124;-73
2023/06/04 12:59:28;;;;;;;9.27;1.98;;;27.20;40.10;;;;;;5049693;28;20063;-74